Time;durP1;ratioP1;P1;durP2;ratioP2;P2;SDS_P1;SDS_P2;PMS_P1;PMS_P2;Temp;Humidity;BMP_temperature;BMP_pressure;BME280_temperature;BME280_humidity;BME280_pressure;Samples;Min_cycle;Max_cycle;Signal;HPM_P1;HPM_P2
2023/06/04 00:02:25;;;;;;;7.22;2.42;;;;;;;;;;5009398;28;20040;-65
2023/06/04 00:04:51;;;;;;;5.15;2.13;;;;;;;;;;5021042;28;20041;-65
2023/06/04 00:07:16;;;;;;;3.22;2.00;;;;;;;;;;4990430;28;20038;-65
2023/06/04 00:09:42;;;;;;;3.95;2.33;;;;;;;;;;5019612;28;20526;-65
2023/06/04 00:12:07;;;;;;;3.63;1.90;;;;;;;;;;5001527;28;20457;-65
2023/06/04 00:14:33;;;;;;;5.32;2.10;;;;;;;;;;5007246;28;20034;-65
2023/06/04 00:16:58;;;;;;;3.83;2.10;;;;;;;;;;5025092;28;20068;-65
2023/06/04 00:19:24;;;;;;;4.30;2.53;;;;;;;;;;5029108;28;20405;-66
2023/06/04 00:21:49;;;;;;;6.05;2.15;;;;;;;;;;5027110;28;20428;-65
2023/06/04 00:24:16;;;;;;;5.32;2.35;;;;;;;;;;5014537;28;20043;-65
2023/06/04 00:26:41;;;;;;;4.05;2.10;;;;;;;;;;5019330;28;20041;-65
2023/06/04 00:29:06;;;;;;;3.92;2.28;;;;;;;;;;5029453;28;20130;-65
2023/06/04 00:31:32;;;;;;;3.60;1.80;;;;;;;;;;5033559;28;20607;-65
2023/06/04 00:33:57;;;;;;;3.05;2.22;;;;;;;;;;5018890;28;20046;-65
2023/06/04 00:36:23;;;;;;;3.78;1.90;;;;;;;;;;4999909;28;20092;-65
2023/06/04 00:38:48;;;;;;;3.17;2.03;;;;;;;;;;5009736;28;20041;-65
2023/06/04 00:41:13;;;;;;;3.95;2.20;;;;;;;;;;5030039;28;20043;-65
2023/06/04 00:43:39;;;;;;;2.88;2.17;;;;;;;;;;5029006;28;20479;-65
2023/06/04 00:46:06;;;;;;;2.85;2.03;;;;;;;;;;5021356;28;20037;-65
2023/06/04 00:48:32;;;;;;;3.17;2.22;;;;;;;;;;5019149;28;20044;-65
2023/06/04 00:50:57;;;;;;;2.97;1.83;;;;;;;;;;5017151;28;20065;-65
2023/06/04 00:53:24;;;;;;;3.78;2.25;;;;;;;;;;5028269;28;20040;-65
2023/06/04 00:55:50;;;;;;;4.72;2.30;;;;;;;;;;5007775;28;20509;-65
2023/06/04 00:58:16;;;;;;;3.80;2.53;;;;;;;;;;5016179;28;20040;-64
2023/06/04 01:00:44;;;;;;;4.20;2.42;;;;;;;;;;5019785;28;20432;-65
2023/06/04 01:03:17;;;;;;;3.22;2.40;;;;;;;;;;5016493;28;20037;-65
2023/06/04 01:06:24;;;;;;;4.30;2.40;;;;;;;;;;5036856;28;20072;-65
2023/06/04 01:08:54;;;;;;;5.68;2.40;;;;;;;;;;4978322;28;20104;-65
2023/06/04 01:11:30;;;;;;;4.57;2.40;;;;;;;;;;5024586;28;20107;-65
2023/06/04 01:13:55;;;;;;;4.00;2.25;;;;;;;;;;5030928;28;20047;-64
2023/06/04 01:16:21;;;;;;;3.70;2.60;;;;;;;;;;5028443;28;20508;-64
2023/06/04 01:18:47;;;;;;;6.22;2.67;;;;;;;;;;5025311;28;20029;-64
2023/06/04 01:21:18;;;;;;;4.65;2.83;;;;;;;;;;5016114;28;20037;-65
2023/06/04 01:23:58;;;;;;;5.22;2.78;;;;;;;;;;5024313;28;20045;-64
2023/06/04 01:26:25;;;;;;;3.47;2.17;;;;;;;;;;5029638;28;20049;-65
2023/06/04 01:28:51;;;;;;;4.45;2.58;;;;;;;;;;5027238;28;20175;-66
2023/06/04 01:31:16;;;;;;;4.50;2.88;;;;;;;;;;5024267;28;20123;-65
2023/06/04 01:33:42;;;;;;;5.47;3.05;;;;;;;;;;5019987;28;20965;-64
2023/06/04 01:36:10;;;;;;;5.28;2.72;;;;;;;;;;5029937;28;20036;-65
2023/06/04 01:38:35;;;;;;;3.67;2.65;;;;;;;;;;5028092;28;20045;-65
2023/06/04 01:41:01;;;;;;;4.13;2.58;;;;;;;;;;5025673;28;20037;-64
2023/06/04 01:43:28;;;;;;;5.22;2.90;;;;;;;;;;5009405;28;20037;-65
2023/06/04 01:45:54;;;;;;;6.55;2.78;;;;;;;;;;4996529;28;20767;-65
2023/06/04 01:48:20;;;;;;;4.88;2.53;;;;;;;;;;5042738;28;20056;-65
2023/06/04 01:50:45;;;;;;;4.72;2.85;;;;;;;;;;5027877;28;20405;-64
2023/06/04 01:53:10;;;;;;;4.07;2.72;;;;;;;;;;5015639;28;20552;-64
2023/06/04 01:55:37;;;;;;;5.38;3.05;;;;;;;;;;5025868;28;20048;-64
2023/06/04 01:58:03;;;;;;;6.05;2.70;;;;;;;;;;5025268;28;20057;-64
2023/06/04 02:00:28;;;;;;;3.55;2.42;;;;;;;;;;5015666;28;20837;-64
2023/06/04 02:02:55;;;;;;;3.30;2.58;;;;;;;;;;5025077;28;20048;-64
2023/06/04 02:05:21;;;;;;;4.07;2.50;;;;;;;;;;5026090;28;20520;-64
2023/06/04 02:07:47;;;;;;;4.55;2.97;;;;;;;;;;5016308;28;20072;-64
2023/06/04 02:10:15;;;;;;;4.95;2.20;;;;;;;;;;5037180;28;20082;-65
2023/06/04 02:12:52;;;;;;;4.30;2.50;;;;;;;;;;5009524;28;20556;-64
2023/06/04 02:15:18;;;;;;;4.60;2.65;;;;;;;;;;4998981;28;20473;-64
2023/06/04 02:17:45;;;;;;;3.92;2.58;;;;;;;;;;5024945;28;20041;-64
2023/06/04 02:20:11;;;;;;;4.28;2.40;;;;;;;;;;5021962;28;20044;-64
2023/06/04 02:22:37;;;;;;;4.10;2.70;;;;;;;;;;5026908;28;20622;-65
2023/06/04 02:25:02;;;;;;;3.88;2.38;;;;;;;;;;5028160;28;20063;-65
2023/06/04 02:27:28;;;;;;;7.25;3.33;;;;;;;;;;5000009;28;20131;-64
2023/06/04 02:29:53;;;;;;;4.95;2.45;;;;;;;;;;5022944;28;20043;-64
2023/06/04 02:32:18;;;;;;;4.03;2.60;;;;;;;;;;5038675;28;20052;-64
2023/06/04 02:34:44;;;;;;;4.72;3.05;;;;;;;;;;5012316;28;20947;-64
2023/06/04 02:37:09;;;;;;;8.02;2.80;;;;;;;;;;5015605;28;20052;-64
2023/06/04 02:39:35;;;;;;;5.75;2.95;;;;;;;;;;4992836;28;20102;-64
2023/06/04 02:42:00;;;;;;;3.90;2.47;;;;;;;;;;5000399;28;20115;-64
2023/06/04 02:44:26;;;;;;;4.50;2.58;;;;;;;;;;5034306;28;20444;-64
2023/06/04 02:46:51;;;;;;;4.50;2.75;;;;;;;;;;5017805;28;20052;-64
2023/06/04 02:49:16;;;;;;;3.63;2.25;;;;;;;;;;5024371;28;20037;-64
2023/06/04 02:51:43;;;;;;;4.93;2.45;;;;;;;;;;5024075;28;20044;-64
2023/06/04 02:54:08;;;;;;;4.28;2.45;;;;;;;;;;5044273;28;20100;-64
2023/06/04 02:56:36;;;;;;;5.47;2.47;;;;;;;;;;5018479;28;20124;-64
2023/06/04 02:59:02;;;;;;;3.13;2.53;;;;;;;;;;5024687;28;20032;-64
2023/06/04 03:01:28;;;;;;;3.70;2.35;;;;;;;;;;5013943;28;20059;-64
2023/06/04 03:03:54;;;;;;;3.15;2.10;;;;;;;;;;5018432;28;20037;-64
2023/06/04 03:06:21;;;;;;;2.63;2.05;;;;;;;;;;5029106;28;20120;-64
2023/06/04 03:08:48;;;;;;;4.45;2.17;;;;;;;;;;5024014;28;20045;-65
2023/06/04 03:11:14;;;;;;;3.58;2.00;;;;;;;;;;5014010;28;20529;-65
2023/06/04 03:13:39;;;;;;;7.05;2.60;;;;;;;;;;5017870;28;20099;-65
2023/06/04 03:16:09;;;;;;;3.33;1.90;;;;;;;;;;5013755;28;20066;-65
2023/06/04 03:18:38;;;;;;;2.78;1.80;;;;;;;;;;5023177;28;20449;-66
2023/06/04 03:21:04;;;;;;;2.50;1.92;;;;;;;;;;5021167;28;20163;-65
2023/06/04 03:23:30;;;;;;;3.22;2.03;;;;;;;;;;5013139;28;20128;-65
2023/06/04 03:25:56;;;;;;;5.70;2.35;;;;;;;;;;5030042;28;21267;-65
2023/06/04 03:28:22;;;;;;;3.67;2.20;;;;;;;;;;5008851;28;20678;-66
2023/06/04 03:30:47;;;;;;;3.08;1.83;;;;;;;;;;5024257;28;20095;-64
2023/06/04 03:33:12;;;;;;;4.32;2.53;;;;;;;;;;5021506;28;20124;-65
2023/06/04 03:35:40;;;;;;;4.55;1.85;;;;;;;;;;5033115;28;20561;-65
2023/06/04 03:38:05;;;;;;;3.08;2.05;;;;;;;;;;5009114;28;20123;-65
2023/06/04 03:40:31;;;;;;;3.45;2.40;;;;;;;;;;5012694;28;20486;-65
2023/06/04 03:42:56;;;;;;;3.13;2.00;;;;;;;;;;5011765;28;20552;-65
2023/06/04 03:45:22;;;;;;;3.15;2.22;;;;;;;;;;4980577;28;20526;-66
2023/06/04 03:47:47;;;;;;;2.92;2.08;;;;;;;;;;5021530;28;20049;-65
2023/06/04 03:50:12;;;;;;;3.47;1.98;;;;;;;;;;5030687;28;20056;-65
2023/06/04 03:52:38;;;;;;;3.88;2.03;;;;;;;;;;5013369;28;20076;-66
2023/06/04 03:55:04;;;;;;;3.72;2.30;;;;;;;;;;5024289;28;20037;-66
2023/06/04 03:57:29;;;;;;;4.20;1.90;;;;;;;;;;5013011;28;20076;-65
2023/06/04 03:59:55;;;;;;;3.35;2.33;;;;;;;;;;5027025;28;20045;-65
2023/06/04 04:02:20;;;;;;;3.80;2.38;;;;;;;;;;5025130;28;20053;-65
2023/06/04 04:04:46;;;;;;;3.88;2.30;;;;;;;;;;5023377;28;20118;-65
2023/06/04 04:07:11;;;;;;;3.88;2.30;;;;;;;;;;5014546;28;20033;-64
2023/06/04 04:09:37;;;;;;;4.05;2.17;;;;;;;;;;5027595;28;20080;-64
2023/06/04 04:12:03;;;;;;;3.30;2.13;;;;;;;;;;5024089;28;20045;-64
2023/06/04 04:14:28;;;;;;;3.38;2.28;;;;;;;;;;5023252;28;20426;-64
2023/06/04 04:16:54;;;;;;;4.25;2.30;;;;;;;;;;5022570;28;20066;-64
2023/06/04 04:19:20;;;;;;;2.55;1.90;;;;;;;;;;5012156;28;20037;-64
2023/06/04 04:21:48;;;;;;;3.38;2.55;;;;;;;;;;5022609;28;20173;-64
2023/06/04 04:24:22;;;;;;;3.40;2.50;;;;;;;;;;5016298;28;20049;-64
2023/06/04 04:26:48;;;;;;;3.75;2.30;;;;;;;;;;5022977;28;20140;-64
2023/06/04 04:29:14;;;;;;;3.55;2.30;;;;;;;;;;5022650;28;20112;-64
2023/06/04 04:31:40;;;;;;;3.10;2.38;;;;;;;;;;5020237;28;20057;-64
2023/06/04 04:34:07;;;;;;;3.17;2.40;;;;;;;;;;5012035;28;20036;-65
2023/06/04 04:36:36;;;;;;;4.45;2.50;;;;;;;;;;5025426;28;20516;-64
2023/06/04 04:39:01;;;;;;;4.35;2.65;;;;;;;;;;5016857;28;20612;-64
2023/06/04 04:41:27;;;;;;;3.13;2.15;;;;;;;;;;5025570;28;20074;-64
2023/06/04 04:43:53;;;;;;;3.90;2.33;;;;;;;;;;5031240;28;20125;-64
2023/06/04 04:46:18;;;;;;;2.83;1.98;;;;;;;;;;5021519;28;20040;-64
2023/06/04 04:48:43;;;;;;;4.05;2.47;;;;;;;;;;5022903;28;20041;-64
2023/06/04 04:51:09;;;;;;;3.35;2.40;;;;;;;;;;5026352;28;20174;-64
2023/06/04 04:53:35;;;;;;;4.50;2.60;;;;;;;;;;5013173;28;20040;-64
2023/06/04 04:56:00;;;;;;;4.63;2.35;;;;;;;;;;5026574;28;20869;-65
2023/06/04 04:58:25;;;;;;;3.17;2.20;;;;;;;;;;5025529;28;20052;-65
2023/06/04 05:00:51;;;;;;;4.80;2.10;;;;;;;;;;5014536;28;20516;-64
2023/06/04 05:03:16;;;;;;;3.60;2.50;;;;;;;;;;4994892;28;20068;-64
2023/06/04 05:05:43;;;;;;;4.53;2.83;;;;;;;;;;5018426;28;20045;-64
2023/06/04 05:08:09;;;;;;;4.00;2.08;;;;;;;;;;5015214;28;20272;-63
2023/06/04 05:10:35;;;;;;;3.63;2.17;;;;;;;;;;5024594;28;20036;-64
2023/06/04 05:13:01;;;;;;;3.33;2.22;;;;;;;;;;5019900;28;20052;-64
2023/06/04 05:15:27;;;;;;;4.50;2.10;;;;;;;;;;5008293;28;20049;-64
2023/06/04 05:17:53;;;;;;;4.05;2.58;;;;;;;;;;5027422;28;20041;-64
2023/06/04 05:20:20;;;;;;;3.28;2.40;;;;;;;;;;5016635;28;20065;-64
2023/06/04 05:22:46;;;;;;;4.75;2.42;;;;;;;;;;5023512;28;20045;-64
2023/06/04 05:25:11;;;;;;;3.30;2.33;;;;;;;;;;5021761;28;20048;-64
2023/06/04 05:27:38;;;;;;;7.60;2.30;;;;;;;;;;5005128;28;20033;-64
2023/06/04 05:30:04;;;;;;;3.90;2.25;;;;;;;;;;5021240;28;20049;-64
2023/06/04 05:32:30;;;;;;;4.70;2.40;;;;;;;;;;5020414;28;20044;-64
2023/06/04 05:34:57;;;;;;;4.28;3.03;;;;;;;;;;5015173;28;20597;-64
2023/06/04 05:37:23;;;;;;;4.38;2.47;;;;;;;;;;5023900;28;20041;-64
2023/06/04 05:39:50;;;;;;;4.93;2.58;;;;;;;;;;5030141;28;20041;-64
2023/06/04 05:42:15;;;;;;;3.45;2.13;;;;;;;;;;5004595;28;20702;-64
2023/06/04 05:44:41;;;;;;;3.08;2.22;;;;;;;;;;5018896;28;20041;-64
2023/06/04 05:47:06;;;;;;;2.60;1.90;;;;;;;;;;5023547;28;20095;-64
2023/06/04 05:49:34;;;;;;;3.38;2.10;;;;;;;;;;5010485;28;20120;-64
2023/06/04 05:51:59;;;;;;;3.78;2.40;;;;;;;;;;5023534;28;20781;-64
2023/06/04 05:54:25;;;;;;;3.03;2.17;;;;;;;;;;5023406;28;20075;-65
2023/06/04 05:56:50;;;;;;;4.72;2.50;;;;;;;;;;5003519;28;20061;-64
2023/06/04 05:59:16;;;;;;;3.53;2.22;;;;;;;;;;5012886;28;20552;-64
2023/06/04 06:01:43;;;;;;;4.10;2.42;;;;;;;;;;5037641;28;20058;-64
2023/06/04 06:04:08;;;;;;;3.97;2.50;;;;;;;;;;5012346;28;20045;-65
2023/06/04 06:06:35;;;;;;;4.55;2.22;;;;;;;;;;5010366;28;20414;-64
2023/06/04 06:09:00;;;;;;;3.35;2.10;;;;;;;;;;5019568;28;20116;-64
2023/06/04 06:11:27;;;;;;;4.22;2.10;;;;;;;;;;5004161;28;20056;-64
2023/06/04 06:13:53;;;;;;;3.20;2.00;;;;;;;;;;5019844;28;20040;-64
2023/06/04 06:16:18;;;;;;;4.47;2.15;;;;;;;;;;5000433;28;20048;-64
2023/06/04 06:18:44;;;;;;;3.13;2.00;;;;;;;;;;5020902;28;20119;-64
2023/06/04 06:21:09;;;;;;;4.53;2.13;;;;;;;;;;5024666;28;20052;-64
2023/06/04 06:23:35;;;;;;;1.98;1.40;;;;;;;;;;5042608;28;20036;-64
2023/06/04 06:26:01;;;;;;;2.92;1.80;;;;;;;;;;5012996;28;20029;-64
2023/06/04 06:28:27;;;;;;;3.40;2.63;;;;;;;;;;5023313;28;20545;-64
2023/06/04 06:30:53;;;;;;;2.80;1.75;;;;;;;;;;5012022;28;20040;-64
2023/06/04 06:33:21;;;;;;;2.90;1.50;;;;;;;;;;5022955;28;20058;-64
2023/06/04 06:35:47;;;;;;;1.38;1.13;;;;;;;;;;5024202;28;20586;-65
2023/06/04 06:38:12;;;;;;;2.42;1.48;;;;;;;;;;4995359;28;20103;-64
2023/06/04 06:40:38;;;;;;;5.65;2.05;;;;;;;;;;5022611;28;20044;-64
2023/06/04 06:43:03;;;;;;;3.60;2.20;;;;;;;;;;5020618;28;20044;-65
2023/06/04 06:45:29;;;;;;;2.97;1.77;;;;;;;;;;5013706;28;20716;-64
2023/06/04 06:47:54;;;;;;;3.20;2.00;;;;;;;;;;5021403;28;20041;-64
2023/06/04 06:50:19;;;;;;;2.67;1.85;;;;;;;;;;5022827;28;20190;-64
2023/06/04 06:52:45;;;;;;;3.47;1.85;;;;;;;;;;5011779;28;20040;-64
2023/06/04 06:55:10;;;;;;;4.22;2.10;;;;;;;;;;5032863;28;20461;-64
2023/06/04 06:57:36;;;;;;;3.90;1.83;;;;;;;;;;5020360;28;20053;-64
2023/06/04 07:00:02;;;;;;;2.92;1.50;;;;;;;;;;4991631;28;20088;-65
2023/06/04 07:02:28;;;;;;;3.63;1.92;;;;;;;;;;5014551;28;20043;-64
2023/06/04 07:04:54;;;;;;;4.00;1.70;;;;;;;;;;5017023;28;20038;-64
2023/06/04 07:07:19;;;;;;;3.15;1.77;;;;;;;;;;5020641;28;20441;-65
2023/06/04 07:09:45;;;;;;;4.22;1.45;;;;;;;;;;5022945;28;20044;-64
2023/06/04 07:12:10;;;;;;;2.72;1.55;;;;;;;;;;5008169;28;20470;-64
2023/06/04 07:14:35;;;;;;;4.65;1.60;;;;;;;;;;5001737;28;20630;-64
2023/06/04 07:17:01;;;;;;;2.10;1.33;;;;;;;;;;5028767;28;20047;-64
2023/06/04 07:19:26;;;;;;;2.83;1.48;;;;;;;;;;5032406;28;20573;-64
2023/06/04 07:21:54;;;;;;;2.13;1.30;;;;;;;;;;5010332;28;20047;-64
2023/06/04 07:24:19;;;;;;;2.03;1.30;;;;;;;;;;5001665;28;20436;-64
2023/06/04 07:26:45;;;;;;;2.38;1.33;;;;;;;;;;4998841;28;20047;-64
2023/06/04 07:29:11;;;;;;;2.22;1.20;;;;;;;;;;5022440;28;20033;-65
2023/06/04 07:31:36;;;;;;;2.55;1.45;;;;;;;;;;5021761;28;20122;-64
2023/06/04 07:34:01;;;;;;;0.82;0.70;;;;;;;;;;4984120;28;20049;-65
2023/06/04 07:36:27;;;;;;;2.67;1.17;;;;;;;;;;5016768;28;20037;-65
2023/06/04 07:38:52;;;;;;;2.78;1.70;;;;;;;;;;5026372;28;20033;-64
2023/06/04 07:41:18;;;;;;;3.20;1.80;;;;;;;;;;5019833;28;20045;-65
2023/06/04 07:43:43;;;;;;;2.08;1.27;;;;;;;;;;5020271;28;20120;-64
2023/06/04 07:46:09;;;;;;;1.15;0.80;;;;;;;;;;4998132;28;20061;-65
2023/06/04 07:48:35;;;;;;;2.85;1.40;;;;;;;;;;5012754;28;20669;-65
2023/06/04 07:51:04;;;;;;;3.08;1.40;;;;;;;;;;5023573;28;20038;-64
2023/06/04 07:53:29;;;;;;;2.03;1.17;;;;;;;;;;5020140;28;20041;-65
2023/06/04 07:55:56;;;;;;;2.40;1.17;;;;;;;;;;5010959;28;20052;-65
2023/06/04 07:58:22;;;;;;;2.40;1.33;;;;;;;;;;5021578;28;20045;-65
2023/06/04 08:00:47;;;;;;;3.65;0.98;;;;;;;;;;5021133;28;20040;-64
2023/06/04 08:03:15;;;;;;;1.92;1.55;;;;;;;;;;5011554;28;20460;-64
2023/06/04 08:05:40;;;;;;;1.88;1.10;;;;;;;;;;5020993;28;20123;-64
2023/06/04 08:08:06;;;;;;;1.73;1.05;;;;;;;;;;5015536;28;20045;-64
2023/06/04 08:10:31;;;;;;;1.65;1.15;;;;;;;;;;5020035;28;20043;-65
2023/06/04 08:12:56;;;;;;;3.10;1.30;;;;;;;;;;5042051;28;20064;-64
2023/06/04 08:15:22;;;;;;;3.10;1.15;;;;;;;;;;5024777;28;20068;-65
2023/06/04 08:17:47;;;;;;;4.28;1.17;;;;;;;;;;5014248;28;20048;-64
2023/06/04 08:20:13;;;;;;;5.97;1.33;;;;;;;;;;5012316;28;20124;-64
2023/06/04 08:22:38;;;;;;;2.50;1.30;;;;;;;;;;5014524;28;20048;-64
2023/06/04 08:25:04;;;;;;;1.33;1.00;;;;;;;;;;5041347;28;20032;-65
2023/06/04 08:27:30;;;;;;;2.92;1.05;;;;;;;;;;5024996;28;20194;-64
2023/06/04 08:29:57;;;;;;;1.95;1.05;;;;;;;;;;5024799;28;20052;-64
2023/06/04 08:32:22;;;;;;;2.03;1.20;;;;;;;;;;4988837;28;20135;-64
2023/06/04 08:34:48;;;;;;;1.02;0.80;;;;;;;;;;5036449;28;20147;-64
2023/06/04 08:37:13;;;;;;;1.48;0.80;;;;;;;;;;5023249;28;20060;-65
2023/06/04 08:39:39;;;;;;;1.58;1.00;;;;;;;;;;5025562;28;20127;-65
2023/06/04 08:42:09;;;;;;;3.20;1.00;;;;;;;;;;5029194;28;20047;-65
2023/06/04 08:44:35;;;;;;;1.60;0.88;;;;;;;;;;5032070;28;20897;-65
2023/06/04 08:47:05;;;;;;;5.93;1.08;;;;;;;;;;5013570;28;20135;-66
2023/06/04 08:49:38;;;;;;;1.42;1.10;;;;;;;;;;5019991;28;20509;-65
2023/06/04 08:52:05;;;;;;;1.02;0.80;;;;;;;;;;5015191;28;20116;-66
2023/06/04 08:54:32;;;;;;;1.75;0.90;;;;;;;;;;5014280;28;20165;-64
2023/06/04 08:57:00;;;;;;;2.38;1.42;;;;;;;;;;5031671;28;20040;-64
2023/06/04 08:59:27;;;;;;;1.52;0.88;;;;;;;;;;5029995;28;20083;-65
2023/06/04 09:01:56;;;;;;;3.53;1.73;;;;;;;;;;5021256;28;20441;-65
2023/06/04 09:04:23;;;;;;;2.28;1.05;;;;;;;;;;5001825;28;20646;-65
2023/06/04 09:06:49;;;;;;;0.68;0.60;;;;;;;;;;5025481;28;20484;-65
2023/06/04 09:09:15;;;;;;;1.48;0.82;;;;;;;;;;5030178;28;20067;-65
2023/06/04 09:11:52;;;;;;;1.00;0.60;;;;;;;;;;5015814;28;20049;-65
2023/06/04 09:14:18;;;;;;;1.00;0.90;;;;;;;;;;5025939;28;20061;-65
2023/06/04 09:16:55;;;;;;;1.63;0.60;;;;;;;;;;5016038;28;21016;-65
2023/06/04 09:19:22;;;;;;;4.05;0.98;;;;;;;;;;5018084;28;20041;-66
2023/06/04 09:21:51;;;;;;;2.38;0.90;;;;;;;;;;5011572;28;20041;-65
2023/06/04 09:24:21;;;;;;;1.23;0.70;;;;;;;;;;5003766;28;20046;-65
2023/06/04 09:26:47;;;;;;;1.45;0.80;;;;;;;;;;5004780;28;20686;-65
2023/06/04 09:29:13;;;;;;;3.85;0.80;;;;;;;;;;5013343;28;20123;-65
2023/06/04 09:31:39;;;;;;;2.35;0.98;;;;;;;;;;5019139;28;20049;-65
2023/06/04 09:34:05;;;;;;;1.48;0.60;;;;;;;;;;5011305;28;20120;-66
2023/06/04 09:36:37;;;;;;;1.63;1.20;;;;;;;;;;5012300;28;20178;-65
2023/06/04 09:39:04;;;;;;;1.00;0.70;;;;;;;;;;4990605;28;20791;-65
2023/06/04 09:41:30;;;;;;;1.48;0.85;;;;;;;;;;5008754;28;20037;-66
2023/06/04 09:44:02;;;;;;;2.72;0.80;;;;;;;;;;5013673;28;20044;-66
2023/06/04 09:46:28;;;;;;;1.42;1.00;;;;;;;;;;5022034;28;20552;-66
2023/06/04 09:49:03;;;;;;;2.65;0.90;;;;;;;;;;5001988;28;20054;-66
2023/06/04 09:51:30;;;;;;;1.38;1.00;;;;;;;;;;5001417;28;20052;-65
2023/06/04 09:54:01;;;;;;;1.13;0.70;;;;;;;;;;5009469;28;20588;-65
2023/06/04 09:56:27;;;;;;;1.85;0.95;;;;;;;;;;5015987;28;20128;-65
2023/06/04 09:59:02;;;;;;;0.88;0.68;;;;;;;;;;5021063;28;20079;-65
2023/06/04 10:01:29;;;;;;;1.10;0.73;;;;;;;;;;5001980;28;20041;-66
2023/06/04 10:03:58;;;;;;;2.15;1.10;;;;;;;;;;5020121;28;20033;-65
2023/06/04 10:06:25;;;;;;;2.92;1.00;;;;;;;;;;5011860;28;20108;-65
2023/06/04 10:08:52;;;;;;;2.35;0.93;;;;;;;;;;4999838;28;20076;-65
2023/06/04 10:11:25;;;;;;;2.47;1.00;;;;;;;;;;5016188;28;20041;-66
2023/06/04 10:14:04;;;;;;;3.05;0.90;;;;;;;;;;5013668;28;20156;-65
2023/06/04 10:16:31;;;;;;;1.58;0.93;;;;;;;;;;5022436;28;20114;-65
2023/06/04 10:18:58;;;;;;;1.92;0.80;;;;;;;;;;5008088;28;20069;-65
2023/06/04 10:21:26;;;;;;;2.10;0.95;;;;;;;;;;5018715;28;20052;-66
2023/06/04 10:23:51;;;;;;;2.22;0.77;;;;;;;;;;5022265;28;20037;-65
2023/06/04 10:26:18;;;;;;;1.75;1.10;;;;;;;;;;5014889;28;20045;-66
2023/06/04 10:28:44;;;;;;;0.98;0.70;;;;;;;;;;5023017;28;20573;-66
2023/06/04 10:31:10;;;;;;;1.70;0.70;;;;;;;;;;5017866;28;20476;-66
2023/06/04 10:33:36;;;;;;;3.35;0.80;;;;;;;;;;5020083;28;20033;-66
2023/06/04 10:36:19;;;;;;;1.55;0.60;;;;;;;;;;5023703;28;20086;-66
2023/06/04 10:38:46;;;;;;;2.55;0.80;;;;;;;;;;5012806;28;20148;-66
2023/06/04 10:41:14;;;;;;;8.18;1.65;;;;;;;;;;5012466;28;20037;-66
2023/06/04 10:43:40;;;;;;;1.50;0.80;;;;;;;;;;5016298;28;20901;-65
2023/06/04 10:46:16;;;;;;;1.60;1.00;;;;;;;;;;4991792;28;20050;-65
2023/06/04 10:48:47;;;;;;;1.80;0.95;;;;;;;;;;5014311;28;20064;-66
2023/06/04 10:51:13;;;;;;;1.70;0.75;;;;;;;;;;5023818;28;20037;-65
2023/06/04 10:53:38;;;;;;;1.73;1.10;;;;;;;;;;5024562;28;20063;-66
2023/06/04 10:56:03;;;;;;;2.63;0.80;;;;;;;;;;5024212;28;20033;-66
2023/06/04 10:58:33;;;;;;;2.38;0.93;;;;;;;;;;5011996;28;20049;-66
2023/06/04 11:00:58;;;;;;;2.90;1.10;;;;;;;;;;5024079;28;20040;-66
2023/06/04 11:03:35;;;;;;;1.45;0.70;;;;;;;;;;5018042;28;20432;-66
2023/06/04 11:06:01;;;;;;;1.98;0.80;;;;;;;;;;5011537;28;20037;-66
2023/06/04 11:08:28;;;;;;;1.33;0.80;;;;;;;;;;5016490;28;20048;-66
2023/06/04 11:10:53;;;;;;;2.25;0.95;;;;;;;;;;5006604;28;20076;-66
2023/06/04 11:13:24;;;;;;;2.42;0.70;;;;;;;;;;5013366;28;21393;-66
2023/06/04 11:15:50;;;;;;;2.05;0.90;;;;;;;;;;5026027;28;20129;-66
2023/06/04 11:18:22;;;;;;;1.08;0.57;;;;;;;;;;5000432;28;20116;-66
2023/06/04 11:20:50;;;;;;;1.23;0.90;;;;;;;;;;5016833;28;20049;-66
2023/06/04 11:23:16;;;;;;;2.05;1.00;;;;;;;;;;4994847;28;20045;-66
2023/06/04 11:25:43;;;;;;;2.22;0.90;;;;;;;;;;5029120;28;20130;-66
2023/06/04 11:28:15;;;;;;;1.77;0.95;;;;;;;;;;4997544;28;20054;-66
2023/06/04 11:30:41;;;;;;;1.30;0.80;;;;;;;;;;4994288;28;20041;-66
2023/06/04 11:33:06;;;;;;;1.40;0.90;;;;;;;;;;4994812;28;20041;-66
2023/06/04 11:35:43;;;;;;;1.95;0.93;;;;;;;;;;4972598;28;20049;-66
2023/06/04 11:38:10;;;;;;;1.40;0.60;;;;;;;;;;4988357;28;20038;-66
2023/06/04 11:40:35;;;;;;;2.17;0.60;;;;;;;;;;4970702;28;20038;-65
2023/06/04 11:43:01;;;;;;;1.30;0.73;;;;;;;;;;4996824;28;20064;-66
2023/06/04 11:45:29;;;;;;;1.05;0.70;;;;;;;;;;5002818;28;20045;-67
2023/06/04 11:47:55;;;;;;;1.48;0.90;;;;;;;;;;4966872;28;20042;-67
2023/06/04 11:50:22;;;;;;;2.53;0.80;;;;;;;;;;4960646;28;20049;-66
2023/06/04 11:52:49;;;;;;;1.58;0.73;;;;;;;;;;4962291;28;20044;-66
2023/06/04 11:55:17;;;;;;;1.55;0.60;;;;;;;;;;5008230;28;20525;-66
2023/06/04 11:57:43;;;;;;;2.47;0.65;;;;;;;;;;5015245;28;20059;-66
2023/06/04 12:00:09;;;;;;;2.42;1.10;;;;;;;;;;5025553;28;20033;-66
2023/06/04 12:02:47;;;;;;;1.00;0.82;;;;;;;;;;4989721;28;20041;-66
2023/06/04 12:05:14;;;;;;;1.83;0.80;;;;;;;;;;4998843;28;20502;-66
2023/06/04 12:07:40;;;;;;;2.08;0.80;;;;;;;;;;5023334;28;20045;-66
2023/06/04 12:10:08;;;;;;;2.05;0.80;;;;;;;;;;5005476;28;20033;-66
2023/06/04 12:12:35;;;;;;;1.30;0.85;;;;;;;;;;5011039;28;20053;-66
2023/06/04 12:15:00;;;;;;;2.00;0.70;;;;;;;;;;5004667;28;20143;-66
2023/06/04 12:17:26;;;;;;;2.22;0.63;;;;;;;;;;5024980;28;20475;-66
2023/06/04 12:19:52;;;;;;;2.05;1.30;;;;;;;;;;5027758;28;20041;-66
2023/06/04 12:22:18;;;;;;;1.77;0.90;;;;;;;;;;5018695;28;20069;-66
2023/06/04 12:24:49;;;;;;;1.48;0.80;;;;;;;;;;4993143;28;20053;-66
2023/06/04 12:27:14;;;;;;;;;;;;;;;;;;5025591;28;20884;-66
2023/06/04 12:29:40;;;;;;;1.20;0.82;;;;;;;;;;5003996;28;20053;-66
2023/06/04 12:32:07;;;;;;;1.65;0.70;;;;;;;;;;5026995;28;20106;-66
2023/06/04 12:34:34;;;;;;;1.35;0.73;;;;;;;;;;5030179;28;20049;-66
2023/06/04 12:37:00;;;;;;;1.35;0.80;;;;;;;;;;5016560;28;20044;-66
2023/06/04 12:39:26;;;;;;;1.10;0.50;;;;;;;;;;5017382;28;20608;-66
2023/06/04 12:41:52;;;;;;;0.93;0.80;;;;;;;;;;5029255;28;20051;-67
2023/06/04 12:44:17;;;;;;;1.45;0.80;;;;;;;;;;5019921;28;20044;-66
2023/06/04 12:46:43;;;;;;;1.20;0.73;;;;;;;;;;5016053;28;20049;-66
2023/06/04 12:49:08;;;;;;;1.20;0.60;;;;;;;;;;5000351;28;20076;-66
2023/06/04 12:51:33;;;;;;;2.53;1.02;;;;;;;;;;5020212;28;20144;-67
2023/06/04 12:53:59;;;;;;;1.23;0.80;;;;;;;;;;5034325;28;20032;-66
2023/06/04 12:56:26;;;;;;;1.88;1.10;;;;;;;;;;5020957;28;20053;-66
2023/06/04 12:58:51;;;;;;;1.60;0.80;;;;;;;;;;4995073;28;20045;-66
2023/06/04 13:01:17;;;;;;;1.52;0.77;;;;;;;;;;5029512;28;20038;-66
2023/06/04 13:03:43;;;;;;;1.85;0.98;;;;;;;;;;5028234;28;20675;-66
2023/06/04 13:06:08;;;;;;;2.00;1.05;;;;;;;;;;5019912;28;20656;-67
2023/06/04 13:08:34;;;;;;;2.33;0.65;;;;;;;;;;5005244;28;20048;-67
2023/06/04 13:11:00;;;;;;;0.80;0.65;;;;;;;;;;4960647;28;20521;-66
2023/06/04 13:13:25;;;;;;;1.42;0.77;;;;;;;;;;4981437;28;20124;-66
2023/06/04 13:15:50;;;;;;;1.38;0.63;;;;;;;;;;4992743;28;20057;-66
2023/06/04 13:18:16;;;;;;;1.88;0.80;;;;;;;;;;4985345;28;20559;-66
2023/06/04 13:20:42;;;;;;;1.38;0.70;;;;;;;;;;4985560;28;20041;-66
2023/06/04 13:23:08;;;;;;;2.28;0.80;;;;;;;;;;5015317;28;20068;-66
2023/06/04 13:25:33;;;;;;;3.53;0.80;;;;;;;;;;4998227;28;20725;-67
2023/06/04 13:28:00;;;;;;;1.08;0.70;;;;;;;;;;4986099;28;20069;-66
2023/06/04 13:30:25;;;;;;;1.70;0.70;;;;;;;;;;4971174;28;20377;-66
2023/06/04 13:32:50;;;;;;;1.90;0.70;;;;;;;;;;4992947;28;20045;-66
2023/06/04 13:35:16;;;;;;;2.00;0.90;;;;;;;;;;5009100;28;20046;-66
2023/06/04 13:37:41;;;;;;;1.45;0.80;;;;;;;;;;4994541;28;20045;-66
2023/06/04 13:40:07;;;;;;;1.42;0.73;;;;;;;;;;5005184;28;20060;-66
2023/06/04 13:42:33;;;;;;;1.50;0.80;;;;;;;;;;5021533;28;20044;-66
2023/06/04 13:44:58;;;;;;;3.08;0.88;;;;;;;;;;5018494;28;20128;-66
2023/06/04 13:47:24;;;;;;;1.00;0.70;;;;;;;;;;5017991;28;20068;-67
2023/06/04 13:49:49;;;;;;;2.28;0.80;;;;;;;;;;5033341;28;20459;-66
2023/06/04 13:52:15;;;;;;;1.92;0.75;;;;;;;;;;5017142;28;20040;-67
2023/06/04 13:54:40;;;;;;;2.78;0.90;;;;;;;;;;4993307;28;20142;-66
2023/06/04 13:57:07;;;;;;;1.58;0.60;;;;;;;;;;5015809;28;20036;-67
2023/06/04 13:59:33;;;;;;;1.25;0.85;;;;;;;;;;5023710;28;20048;-67
2023/06/04 14:01:59;;;;;;;3.90;0.88;;;;;;;;;;5020736;28;20139;-66
2023/06/04 14:04:24;;;;;;;2.53;1.00;;;;;;;;;;5021447;28;20048;-66
2023/06/04 14:06:50;;;;;;;1.73;0.73;;;;;;;;;;5024216;28;20029;-66
2023/06/04 14:09:15;;;;;;;2.05;0.80;;;;;;;;;;4992290;28;20048;-66
2023/06/04 14:11:40;;;;;;;1.52;0.95;;;;;;;;;;5026779;28;20044;-66
2023/06/04 14:14:06;;;;;;;1.75;0.68;;;;;;;;;;5030398;28;20876;-66
2023/06/04 14:16:32;;;;;;;2.58;0.90;;;;;;;;;;5016184;28;20052;-66
2023/06/04 14:18:57;;;;;;;2.63;0.80;;;;;;;;;;5023189;28;20074;-66
2023/06/04 14:21:22;;;;;;;1.48;0.70;;;;;;;;;;5029173;28;20094;-66
2023/06/04 14:23:49;;;;;;;2.78;0.82;;;;;;;;;;5022416;28;20044;-66
2023/06/04 14:26:17;;;;;;;2.70;1.70;;;;;;;;;;5011395;28;20047;-66
2023/06/04 14:28:43;;;;;;;2.15;1.00;;;;;;;;;;5011444;28;20536;-67
2023/06/04 14:31:08;;;;;;;1.23;0.77;;;;;;;;;;5012905;28;20045;-66
2023/06/04 14:33:35;;;;;;;1.92;0.90;;;;;;;;;;5014350;28;20041;-66
2023/06/04 14:36:00;;;;;;;1.20;0.75;;;;;;;;;;5013036;28;20596;-66
2023/06/04 14:38:26;;;;;;;2.28;0.80;;;;;;;;;;5021439;28;20148;-66
2023/06/04 14:40:51;;;;;;;2.33;0.77;;;;;;;;;;4990086;28;20038;-66